Time;durP1;ratioP1;P1;durP2;ratioP2;P2;SDS_P1;SDS_P2;PMS_P1;PMS_P2;Temp;Humidity;BMP_temperature;BMP_pressure;BME280_temperature;BME280_humidity;BME280_pressure;Samples;Min_cycle;Max_cycle;Signal;HPM_P1;HPM_P2
2022/06/07 00:00:00;;;;;;;347.33;198.93;;;;;;;20.83;91.87;99568.25;412356;24;1310;-81
2022/06/07 00:00:11;;;;;;;350.88;200.50;;;;;;;20.78;91.56;99558.03;414361;23;1438;-81
2022/06/07 00:00:22;;;;;;;355.15;205.02;;;;;;;20.80;92.02;99561.38;408815;24;1271;-81
2022/06/07 00:00:33;;;;;;;356.30;204.80;;;;;;;20.83;92.46;99565.59;414466;23;1365;-81
2022/06/07 00:00:44;;;;;;;353.03;202.23;;;;;;;20.80;92.07;99561.38;414715;23;1143;-81
2022/06/07 00:00:54;;;;;;;354.95;203.15;;;;;;;20.83;92.57;99565.59;410670;24;1284;-81
2022/06/07 00:01:04;;;;;;;355.93;202.33;;;;;;;20.83;92.43;99562.91;412712;24;1243;-81
2022/06/07 00:01:15;;;;;;;357.43;203.80;;;;;;;20.85;92.24;99559.16;412769;24;1266;-81
2022/06/07 00:01:25;;;;;;;359.40;202.67;;;;;;;20.83;92.35;99566.44;412683;24;1195;-81
2022/06/07 00:01:36;;;;;;;359.40;201.95;;;;;;;20.85;92.23;99568.97;412841;24;968;-81
2022/06/07 00:01:46;;;;;;;357.48;199.93;;;;;;;20.84;92.74;99565.44;412620;24;1339;-81
2022/06/07 00:01:57;;;;;;;354.80;201.50;;;;;;;20.83;92.51;99555.78;412450;24;1234;-81
2022/06/07 00:02:08;;;;;;;354.03;202.07;;;;;;;20.82;92.82;99556.75;410150;24;1880;-81
2022/06/07 00:02:24;;;;;;;352.95;203.77;;;;;;;20.82;93.04;99563.91;410253;24;1419;-81
2022/06/07 00:02:35;;;;;;;349.73;197.65;;;;;;;20.83;92.63;99557.59;414315;23;1377;-81
2022/06/07 00:02:46;;;;;;;349.25;197.13;;;;;;;20.83;92.79;99554.94;414474;23;1286;-81
2022/06/07 00:02:58;;;;;;;348.37;200.40;;;;;;;20.82;92.45;99558.56;410402;24;1286;-81
2022/06/07 00:03:08;;;;;;;347.75;200.07;;;;;;;20.81;92.43;99555.06;410521;24;891;-81
2022/06/07 00:03:19;;;;;;;347.97;199.33;;;;;;;20.80;92.73;99558.69;412583;24;1185;-81
2022/06/07 00:03:29;;;;;;;347.27;198.77;;;;;;;20.82;92.83;99561.22;412868;24;1370;-81
2022/06/07 00:03:40;;;;;;;351.07;199.00;;;;;;;20.81;92.80;99552.41;409165;24;1280;-81
2022/06/07 00:03:51;;;;;;;348.95;197.52;;;;;;;20.82;92.94;99559.41;411380;24;1290;-81
2022/06/07 00:04:02;;;;;;;351.17;196.43;;;;;;;20.80;92.87;99564.03;412057;24;842;-81
2022/06/07 00:04:12;;;;;;;351.17;200.10;;;;;;;20.81;92.84;99563.06;412712;24;1306;-81
2022/06/07 00:04:22;;;;;;;358.57;204.33;;;;;;;20.80;93.07;99550.72;412761;24;1306;-81
2022/06/07 00:04:33;;;;;;;359.60;205.03;;;;;;;20.79;93.05;99554.38;414466;23;1079;-81
2022/06/07 00:04:43;;;;;;;360.75;202.68;;;;;;;20.81;92.94;99555.06;412242;24;1256;-81
2022/06/07 00:04:54;;;;;;;356.77;200.65;;;;;;;20.78;93.07;99560.69;414086;23;1287;-81
2022/06/07 00:05:05;;;;;;;355.80;201.10;;;;;;;20.77;93.34;99543.03;410529;24;1280;-81
2022/06/07 00:05:17;;;;;;;354.52;201.93;;;;;;;20.81;93.06;99557.72;412130;24;908;-81
2022/06/07 00:05:27;;;;;;;351.05;199.32;;;;;;;20.78;93.15;99558.03;412278;24;1263;-81
2022/06/07 00:05:40;;;;;;;351.70;200.07;;;;;;;20.79;93.06;99559.72;412342;24;1159;-81
2022/06/07 00:05:50;;;;;;;353.58;197.27;;;;;;;20.79;92.34;99554.38;412821;24;1340;-81
2022/06/07 00:06:01;;;;;;;352.20;196.77;;;;;;;20.76;92.23;99556.47;414715;23;1259;-81
2022/06/07 00:06:11;;;;;;;348.17;195.97;;;;;;;20.77;92.45;99555.50;414877;23;1341;-81
2022/06/07 00:06:22;;;;;;;349.13;196.85;;;;;;;20.77;92.46;99556.34;408789;24;1331;-81
2022/06/07 00:06:32;;;;;;;351.37;199.03;;;;;;;20.79;92.55;99551.72;410417;24;1192;-81
2022/06/07 00:06:42;;;;;;;350.08;197.30;;;;;;;20.76;92.11;99554.63;411078;24;1286;-81
2022/06/07 00:06:53;;;;;;;349.67;200.17;;;;;;;20.77;92.08;99556.34;412638;24;1062;-82
2022/06/07 00:07:04;;;;;;;349.27;199.40;;;;;;;20.78;92.45;99559.84;414704;23;754;-82
2022/06/07 00:07:14;;;;;;;348.80;199.55;;;;;;;20.76;92.70;99553.78;412366;24;1183;-82
2022/06/07 00:07:25;;;;;;;350.60;197.93;;;;;;;20.77;92.69;99553.66;411099;24;1214;-82
2022/06/07 00:07:36;;;;;;;350.88;199.32;;;;;;;20.76;92.29;99559.97;408470;24;1245;-81
2022/06/07 00:07:46;;;;;;;351.57;201.73;;;;;;;20.75;92.53;99557.44;408381;24;845;-81
2022/06/07 00:07:56;;;;;;;349.77;201.98;;;;;;;20.75;92.73;99555.63;414132;23;1230;-81
2022/06/07 00:08:07;;;;;;;351.63;203.23;;;;;;;20.74;92.41;99561.91;412282;24;1167;-81
2022/06/07 00:08:18;;;;;;;352.13;203.70;;;;;;;20.76;92.52;99559.13;410726;24;850;-80
2022/06/07 00:08:31;;;;;;;354.53;205.13;;;;;;;20.75;92.51;99558.28;410784;24;1180;-80
2022/06/07 00:08:41;;;;;;;348.83;201.63;;;;;;;20.75;92.86;99563.59;412650;24;1454;-80
2022/06/07 00:08:52;;;;;;;347.13;200.85;;;;;;;20.77;92.70;99556.34;413120;24;1061;-80
2022/06/07 00:09:02;;;;;;;348.17;200.97;;;;;;;20.77;93.02;99559.00;408636;24;1351;-81
2022/06/07 00:09:12;;;;;;;351.60;203.82;;;;;;;20.73;92.57;99560.22;412696;24;1318;-81
2022/06/07 00:09:23;;;;;;;354.87;205.10;;;;;;;20.73;92.39;99562.88;410765;24;1410;-81
2022/06/07 00:09:33;;;;;;;353.92;205.27;;;;;;;20.75;92.93;99566.25;414954;23;1310;-81
2022/06/07 00:09:44;;;;;;;356.63;206.67;;;;;;;20.74;92.54;99561.91;410770;24;1243;-81
2022/06/07 00:09:54;;;;;;;355.65;205.73;;;;;;;20.74;92.68;99558.41;410012;24;1389;-81
2022/06/07 00:10:05;;;;;;;356.47;203.47;;;;;;;20.76;92.77;99565.28;416729;23;963;-81
2022/06/07 00:10:16;;;;;;;353.98;200.57;;;;;;;20.74;92.60;99556.59;412577;24;1307;-81
2022/06/07 00:10:26;;;;;;;348.60;199.15;;;;;;;20.70;92.74;99557.81;412277;24;1004;-81
2022/06/07 00:10:37;;;;;;;349.53;201.47;;;;;;;20.67;92.66;99555.41;412375;24;1171;-81
2022/06/07 00:10:47;;;;;;;351.20;200.95;;;;;;;20.68;92.75;99559.75;410145;24;1180;-81
2022/06/07 00:10:58;;;;;;;356.07;202.27;;;;;;;20.69;92.70;99561.44;414798;23;1286;-81
2022/06/07 00:11:08;;;;;;;354.13;195.57;;;;;;;20.68;92.77;99557.09;412824;24;1186;-81
2022/06/07 00:11:19;;;;;;;355.80;195.87;;;;;;;20.69;92.53;99555.28;410934;24;1207;-81
2022/06/07 00:11:30;;;;;;;352.40;196.57;;;;;;;20.68;92.40;99556.25;411271;24;1347;-81
2022/06/07 00:11:40;;;;;;;351.55;200.27;;;;;;;20.64;92.81;99560.13;414623;23;1088;-81
2022/06/07 00:11:51;;;;;;;350.60;202.47;;;;;;;20.65;92.88;99556.50;414981;23;736;-81
2022/06/07 00:12:01;;;;;;;352.67;204.75;;;;;;;20.62;92.69;99557.59;408459;24;1224;-81
2022/06/07 00:12:12;;;;;;;354.17;207.27;;;;;;;20.66;92.70;99567.03;412781;24;1141;-81
2022/06/07 00:12:22;;;;;;;354.13;206.10;;;;;;;20.61;92.81;99553.25;412492;24;1417;-81
2022/06/07 00:12:33;;;;;;;347.98;199.52;;;;;;;20.63;92.71;99561.09;412374;24;1273;-81
2022/06/07 00:12:43;;;;;;;345.37;197.43;;;;;;;20.59;93.23;99564.03;412745;24;1301;-81
2022/06/07 00:12:54;;;;;;;348.00;199.23;;;;;;;20.61;93.02;99561.22;410610;24;1276;-81
2022/06/07 00:13:04;;;;;;;351.57;202.60;;;;;;;20.58;93.33;99566.81;411031;24;1206;-81
2022/06/07 00:13:16;;;;;;;351.98;203.07;;;;;;;20.59;93.17;99563.19;410077;24;832;-81
2022/06/07 00:13:26;;;;;;;351.83;202.02;;;;;;;20.58;93.10;99564.16;410002;24;1271;-81
2022/06/07 00:13:37;;;;;;;354.05;201.18;;;;;;;20.61;92.96;99566.56;416142;23;1183;-81
2022/06/07 00:13:47;;;;;;;355.63;201.63;;;;;;;20.65;93.25;99568.00;414486;23;1163;-81
2022/06/07 00:13:58;;;;;;;355.77;202.93;;;;;;;20.64;92.86;99568.97;416951;23;866;-81
2022/06/07 00:14:08;;;;;;;356.77;204.60;;;;;;;20.65;93.32;99562.66;410897;24;1465;-81
2022/06/07 00:14:19;;;;;;;354.77;203.55;;;;;;;20.65;93.10;99562.66;413407;24;1242;-81
2022/06/07 00:14:34;;;;;;;354.17;203.23;;;;;;;20.67;93.19;99565.19;411360;24;1050;-81
2022/06/07 00:14:45;;;;;;;352.05;201.60;;;;;;;20.67;93.07;99565.19;411003;24;1458;-81
2022/06/07 00:14:55;;;;;;;351.48;200.45;;;;;;;20.62;93.33;99562.91;413043;24;1274;-81
2022/06/07 00:15:06;;;;;;;352.07;199.23;;;;;;;20.64;93.22;99560.97;414359;23;1151;-81
2022/06/07 00:15:17;;;;;;;352.15;196.07;;;;;;;20.67;93.36;99571.38;413960;23;1192;-81
2022/06/07 00:15:28;;;;;;;353.40;194.32;;;;;;;20.68;93.28;99567.72;412689;24;1364;-81
2022/06/07 00:15:39;;;;;;;352.38;193.00;;;;;;;20.67;93.05;99560.72;410568;24;1264;-82
2022/06/07 00:15:49;;;;;;;353.00;196.02;;;;;;;20.67;93.02;99571.38;412208;24;1451;-82
2022/06/07 00:16:00;;;;;;;353.93;198.03;;;;;;;20.68;92.97;99562.41;411845;24;1193;-82
2022/06/07 00:16:10;;;;;;;354.37;201.77;;;;;;;20.67;93.11;99563.38;414251;23;1275;-81
2022/06/07 00:16:20;;;;;;;353.03;201.30;;;;;;;20.67;92.76;99563.38;414675;23;1211;-81
2022/06/07 00:16:31;;;;;;;352.07;200.33;;;;;;;20.69;93.16;99558.78;412764;24;1192;-81
2022/06/07 00:16:41;;;;;;;352.45;198.35;;;;;;;20.67;92.78;99563.38;411008;24;1310;-81
2022/06/07 00:16:52;;;;;;;354.87;198.13;;;;;;;20.66;92.79;99560.84;412962;24;1469;-81
2022/06/07 00:17:05;;;;;;;354.30;197.60;;;;;;;20.64;92.80;99554.81;411379;24;877;-81
2022/06/07 00:17:15;;;;;;;350.05;195.75;;;;;;;20.65;92.92;99559.16;416742;23;896;-81
2022/06/07 00:17:26;;;;;;;349.67;196.17;;;;;;;20.69;92.79;99563.25;414814;23;1272;-81
2022/06/07 00:17:36;;;;;;;352.85;199.35;;;;;;;20.67;92.75;99566.03;412869;24;1301;-81
2022/06/07 00:17:47;;;;;;;357.13;201.27;;;;;;;20.65;92.69;99556.50;410422;24;1277;-81
2022/06/07 00:17:57;;;;;;;358.85;204.80;;;;;;;20.63;93.13;99555.78;414523;23;1286;-81
2022/06/07 00:18:08;;;;;;;354.15;202.45;;;;;;;20.65;93.24;99562.66;414210;23;1436;-81
2022/06/07 00:18:18;;;;;;;352.10;202.50;;;;;;;20.66;93.56;99567.03;416422;23;1295;-81
2022/06/07 00:18:29;;;;;;;351.63;200.60;;;;;;;20.64;93.19;99562.78;414072;23;1332;-81
2022/06/07 00:18:39;;;;;;;353.67;201.47;;;;;;;20.66;93.23;99561.69;408432;24;1388;-81
2022/06/07 00:18:49;;;;;;;355.40;201.67;;;;;;;20.63;92.88;99559.28;412567;24;1209;-81
2022/06/07 00:19:00;;;;;;;355.52;202.00;;;;;;;20.61;93.17;99555.91;412488;24;1290;-81
2022/06/07 00:19:10;;;;;;;357.40;204.40;;;;;;;20.62;92.77;99562.91;408999;24;1259;-81
2022/06/07 00:19:21;;;;;;;356.00;205.50;;;;;;;20.65;92.78;99565.31;412881;24;1172;-81
2022/06/07 00:19:33;;;;;;;355.27;201.93;;;;;;;20.63;93.16;99564.59;413281;24;1015;-81
2022/06/07 00:19:43;;;;;;;354.27;199.95;;;;;;;20.62;93.08;99562.91;414981;23;1293;-81
2022/06/07 00:19:54;;;;;;;355.52;200.68;;;;;;;20.63;92.86;99559.28;412675;24;1196;-81
2022/06/07 00:20:05;;;;;;;357.83;203.67;;;;;;;20.61;93.14;99558.56;417059;23;1268;-81
2022/06/07 00:20:16;;;;;;;355.40;203.43;;;;;;;20.63;92.88;99559.28;414543;23;1340;-81
2022/06/07 00:20:26;;;;;;;354.40;205.05;;;;;;;20.64;92.94;99563.63;412076;24;1455;-81
2022/06/07 00:20:38;;;;;;;353.70;206.00;;;;;;;20.65;93.06;99557.34;412361;24;1264;-81
2022/06/07 00:20:48;;;;;;;353.77;204.15;;;;;;;20.65;92.80;99557.34;410835;24;1273;-81
2022/06/07 00:21:00;;;;;;;347.50;200.18;;;;;;;20.63;92.95;99553.97;410518;24;1210;-81
2022/06/07 00:21:11;;;;;;;347.40;200.60;;;;;;;20.63;92.58;99556.63;412416;24;1325;-81
2022/06/07 00:21:22;;;;;;;349.20;200.60;;;;;;;20.63;92.79;99558.44;413976;23;1415;-81
2022/06/07 00:21:32;;;;;;;349.95;201.88;;;;;;;20.62;92.87;99557.59;412046;24;1426;-81
2022/06/07 00:21:43;;;;;;;352.97;202.70;;;;;;;20.65;92.90;99561.81;408698;24;1270;-81
2022/06/07 00:21:53;;;;;;;351.13;200.67;;;;;;;20.65;92.68;99561.81;414767;23;1171;-81
2022/06/07 00:22:04;;;;;;;354.57;201.27;;;;;;;20.66;92.82;99564.34;416834;23;1214;-81
2022/06/07 00:22:16;;;;;;;352.92;201.68;;;;;;;20.64;93.17;99560.13;413771;23;1904;-81
2022/06/07 00:22:26;;;;;;;351.30;202.48;;;;;;;20.65;92.96;99562.66;414664;23;1460;-81
2022/06/07 00:22:37;;;;;;;352.00;202.37;;;;;;;20.66;92.79;99559.03;414464;23;777;-81
2022/06/07 00:22:47;;;;;;;352.48;201.20;;;;;;;20.62;92.68;99552.28;412891;24;1186;-81
2022/06/07 00:22:58;;;;;;;352.33;202.40;;;;;;;20.68;93.02;99561.56;412257;24;1175;-80
2022/06/07 00:23:13;;;;;;;347.10;199.43;;;;;;;20.68;92.83;99562.41;410262;24;1370;-81
2022/06/07 00:23:23;;;;;;;345.92;199.02;;;;;;;20.66;93.02;99553.72;412663;24;1319;-81
2022/06/07 00:23:34;;;;;;;345.67;198.07;;;;;;;20.68;93.10;99559.75;412634;24;1334;-80
2022/06/07 00:23:44;;;;;;;348.43;201.57;;;;;;;20.68;93.31;99559.75;410681;24;1288;-80
2022/06/07 00:23:56;;;;;;;346.30;200.20;;;;;;;20.68;92.86;99557.09;410848;24;1183;-80
2022/06/07 00:24:06;;;;;;;344.77;198.80;;;;;;;20.68;93.15;99558.91;408599;24;1235;-80
2022/06/07 00:24:17;;;;;;;345.45;196.65;;;;;;;20.67;93.20;99558.06;410854;24;1338;-80
2022/06/07 00:24:27;;;;;;;349.23;199.83;;;;;;;20.68;92.96;99556.25;414652;23;1180;-80
2022/06/07 00:24:38;;;;;;;350.48;202.18;;;;;;;20.69;93.29;99564.09;412852;24;1306;-80
2022/06/07 00:24:49;;;;;;;350.60;204.60;;;;;;;20.69;93.01;99558.78;411376;24;1233;-80
2022/06/07 00:24:59;;;;;;;349.60;202.20;;;;;;;20.64;93.20;99553.00;412512;24;1320;-80
2022/06/07 00:25:11;;;;;;;351.58;199.82;;;;;;;20.68;93.28;99562.41;413063;24;1234;-81
2022/06/07 00:25:21;;;;;;;350.85;199.15;;;;;;;20.69;93.31;99557.94;411291;24;1276;-81
2022/06/07 00:25:32;;;;;;;350.55;199.77;;;;;;;20.68;93.14;99556.25;410083;24;1204;-81
2022/06/07 00:25:43;;;;;;;351.90;201.20;;;;;;;20.68;93.19;99562.41;411979;24;1272;-81
2022/06/07 00:25:53;;;;;;;350.83;200.88;;;;;;;20.67;93.24;99557.22;412179;24;1267;-81
2022/06/07 00:26:04;;;;;;;350.97;203.37;;;;;;;20.66;93.51;99555.53;414402;23;1262;-81
2022/06/07 00:26:14;;;;;;;352.00;207.23;;;;;;;20.69;93.57;99557.94;410831;24;804;-81
2022/06/07 00:26:25;;;;;;;355.30;209.13;;;;;;;20.65;93.32;99553.84;415972;23;1225;-81
2022/06/07 00:26:38;;;;;;;357.13;209.35;;;;;;;20.67;93.42;99557.22;412085;24;1195;-81
2022/06/07 00:26:49;;;;;;;356.88;208.57;;;;;;;20.66;93.50;99553.72;408896;24;798;-81
2022/06/07 00:26:59;;;;;;;356.47;207.77;;;;;;;20.63;93.52;99553.13;408826;24;1263;-81
2022/06/07 00:27:10;;;;;;;358.23;206.50;;;;;;;20.67;93.32;99563.38;412733;24;1235;-81
2022/06/07 00:27:20;;;;;;;356.98;204.57;;;;;;;20.65;93.98;99556.50;415030;23;1235;-81
2022/06/07 00:27:31;;;;;;;355.20;202.80;;;;;;;20.63;93.63;99563.78;410932;24;1250;-81
2022/06/07 00:27:41;;;;;;;354.90;201.90;;;;;;;20.64;93.50;99560.97;410812;24;825;-81
2022/06/07 00:27:52;;;;;;;354.95;201.93;;;;;;;20.60;93.82;99556.88;412973;24;1196;-81
2022/06/07 00:28:02;;;;;;;353.67;201.73;;;;;;;20.64;93.59;99554.81;414534;23;1209;-81
2022/06/07 00:28:13;;;;;;;354.53;203.20;;;;;;;20.62;93.54;99552.28;414032;23;837;-81
2022/06/07 00:28:23;;;;;;;354.98;204.82;;;;;;;20.61;93.44;99555.91;412453;24;1259;-80
2022/06/07 00:28:34;;;;;;;356.57;205.30;;;;;;;20.61;93.72;99553.25;410544;24;1184;-80
2022/06/07 00:28:44;;;;;;;354.17;205.02;;;;;;;20.65;93.52;99560.00;414290;23;1382;-81
2022/06/07 00:28:54;;;;;;;350.27;203.43;;;;;;;20.64;93.61;99554.81;414546;23;884;-81
2022/06/07 00:29:06;;;;;;;346.97;202.10;;;;;;;20.61;94.08;99555.06;410696;24;1180;-81
2022/06/07 00:29:17;;;;;;;346.08;200.23;;;;;;;20.66;93.66;99559.03;410896;24;1328;-80
2022/06/07 00:29:27;;;;;;;345.65;197.32;;;;;;;20.64;93.68;99558.31;416566;23;1300;-80
2022/06/07 00:29:37;;;;;;;347.60;200.10;;;;;;;20.65;93.65;99554.69;415074;23;1254;-81
2022/06/07 00:29:48;;;;;;;350.15;200.10;;;;;;;20.67;94.11;99559.88;408563;24;1244;-81
2022/06/07 00:29:58;;;;;;;351.00;202.43;;;;;;;20.69;94.02;99563.25;409147;24;1290;-81
2022/06/07 00:30:09;;;;;;;349.98;200.95;;;;;;;20.67;93.81;99566.03;412503;24;1218;-81
2022/06/07 00:30:20;;;;;;;352.63;203.85;;;;;;;20.68;93.51;99556.25;412802;24;1144;-81
2022/06/07 00:30:30;;;;;;;352.53;201.57;;;;;;;20.70;93.75;99559.63;411258;24;1171;-81
2022/06/07 00:30:41;;;;;;;351.45;200.45;;;;;;;20.66;93.53;99556.38;414659;23;1288;-81
2022/06/07 00:30:51;;;;;;;352.63;201.60;;;;;;;20.67;93.35;99559.88;412254;24;1188;-81
2022/06/07 00:31:02;;;;;;;353.63;201.98;;;;;;;20.69;93.82;99563.25;412171;24;1232;-81
2022/06/07 00:31:13;;;;;;;353.83;202.37;;;;;;;20.66;93.64;99553.72;412340;24;1016;-81
2022/06/07 00:31:23;;;;;;;354.33;203.52;;;;;;;20.64;93.63;99555.66;412007;24;855;-81
2022/06/07 00:31:34;;;;;;;356.63;206.67;;;;;;;20.66;93.68;99558.19;409748;24;1242;-81
2022/06/07 00:31:45;;;;;;;354.48;203.88;;;;;;;20.66;93.96;99553.72;412366;24;1344;-81
2022/06/07 00:31:55;;;;;;;355.03;203.87;;;;;;;20.67;93.49;99555.41;410421;24;1203;-81
2022/06/07 00:32:08;;;;;;;356.02;205.68;;;;;;;20.65;93.83;99552.03;408578;24;1194;-81
2022/06/07 00:32:19;;;;;;;356.40;207.20;;;;;;;20.70;93.63;99562.28;413020;24;1372;-81
2022/06/07 00:32:29;;;;;;;352.52;201.13;;;;;;;20.70;93.36;99563.13;416893;23;1274;-81
2022/06/07 00:32:40;;;;;;;350.50;199.05;;;;;;;20.68;93.42;99557.09;413036;24;1301;-81
2022/06/07 00:32:50;;;;;;;353.17;201.13;;;;;;;20.69;93.78;99558.78;410562;24;1283;-81
2022/06/07 00:33:00;;;;;;;352.63;203.25;;;;;;;20.69;93.52;99553.47;410844;24;1270;-81
2022/06/07 00:33:11;;;;;;;355.30;205.40;;;;;;;20.69;93.48;99563.25;413111;24;1179;-81
2022/06/07 00:33:21;;;;;;;354.60;205.77;;;;;;;20.67;93.23;99554.56;416253;23;1300;-82
2022/06/07 00:33:32;;;;;;;353.17;205.63;;;;;;;20.68;93.40;99565.06;413052;24;1175;-81
2022/06/07 00:33:42;;;;;;;352.25;205.30;;;;;;;20.67;93.62;99554.56;410969;24;1227;-81
2022/06/07 00:33:53;;;;;;;350.87;203.10;;;;;;;20.67;93.53;99558.06;412264;24;1275;-81
2022/06/07 00:34:06;;;;;;;352.15;201.25;;;;;;;20.68;93.66;99557.09;412233;24;1353;-81
2022/06/07 00:34:17;;;;;;;348.30;196.98;;;;;;;20.65;93.22;99546.72;414623;23;1631;-81
2022/06/07 00:34:28;;;;;;;344.38;194.60;;;;;;;20.63;93.68;99553.97;412898;24;1215;-81
2022/06/07 00:34:38;;;;;;;345.05;196.40;;;;;;;20.69;93.44;99553.47;414880;23;1377;-81
2022/06/07 00:34:49;;;;;;;345.73;194.23;;;;;;;20.67;93.40;99555.41;412928;24;1312;-81
2022/06/07 00:34:59;;;;;;;349.40;196.37;;;;;;;20.68;93.16;99551.78;412995;24;829;-81
2022/06/07 00:35:10;;;;;;;351.90;197.70;;;;;;;20.68;93.40;99554.44;414813;23;824;-81
2022/06/07 00:35:21;;;;;;;353.25;201.52;;;;;;;20.69;93.56;99550.81;413115;24;1188;-81
2022/06/07 00:35:31;;;;;;;356.45;204.48;;;;;;;20.70;93.74;99549.00;408993;24;1230;-81
2022/06/07 00:35:42;;;;;;;357.02;203.90;;;;;;;20.67;93.64;99559.88;413032;24;1172;-80
2022/06/07 00:35:53;;;;;;;356.63;203.47;;;;;;;20.69;93.88;99553.47;416872;23;1294;-81
2022/06/07 00:36:03;;;;;;;352.10;200.93;;;;;;;20.70;93.55;99557.81;413988;23;754;-81
2022/06/07 00:36:14;;;;;;;352.63;200.45;;;;;;;20.67;93.69;99552.75;412610;24;1218;-80
2022/06/07 00:36:25;;;;;;;353.20;199.80;;;;;;;20.67;93.88;99547.44;412301;24;1163;-80
2022/06/07 00:36:35;;;;;;;354.80;201.27;;;;;;;20.68;93.13;99549.13;410487;24;1338;-80
2022/06/07 00:36:46;;;;;;;353.95;200.38;;;;;;;20.68;93.95;99557.09;412320;24;1211;-80
2022/06/07 00:36:56;;;;;;;353.87;201.43;;;;;;;20.67;93.68;99554.56;412289;24;1196;-81
2022/06/07 00:37:06;;;;;;;356.27;202.07;;;;;;;20.68;93.71;99550.94;408791;24;1130;-81
2022/06/07 00:37:17;;;;;;;360.15;205.35;;;;;;;20.69;93.83;99548.16;411319;24;1235;-81
2022/06/07 00:37:27;;;;;;;360.40;206.63;;;;;;;20.68;93.73;99546.47;413023;24;1247;-81
2022/06/07 00:37:38;;;;;;;354.98;205.05;;;;;;;20.69;93.90;99552.63;414684;23;1249;-81
2022/06/07 00:37:48;;;;;;;354.10;202.67;;;;;;;20.67;93.71;99549.25;416618;23;1302;-81
2022/06/07 00:37:58;;;;;;;351.10;200.85;;;;;;;20.67;93.82;99546.59;412529;23;1309;-81
2022/06/07 00:38:09;;;;;;;352.40;201.60;;;;;;;20.67;93.79;99550.09;414562;23;1160;-81
2022/06/07 00:38:20;;;;;;;349.60;198.48;;;;;;;20.64;93.73;99547.69;413431;24;1042;-81
2022/06/07 00:38:30;;;;;;;349.63;197.27;;;;;;;20.65;93.95;99545.88;410777;24;1000;-81
2022/06/07 00:38:44;;;;;;;350.27;196.07;;;;;;;20.63;93.68;99543.34;410507;24;1326;-81
2022/06/07 00:38:54;;;;;;;347.35;195.02;;;;;;;20.67;93.48;99555.41;414885;23;1328;-81
2022/06/07 00:39:05;;;;;;;344.50;193.55;;;;;;;20.67;93.98;99555.41;413847;23;1309;-81
2022/06/07 00:39:15;;;;;;;344.10;194.40;;;;;;;20.64;93.77;99553.00;410459;24;741;-81
2022/06/07 00:39:25;;;;;;;346.92;196.23;;;;;;;20.67;93.52;99550.09;412416;24;1420;-81
2022/06/07 00:39:36;;;;;;;344.33;193.07;;;;;;;20.66;93.81;99547.56;414449;23;1179;-81
2022/06/07 00:39:46;;;;;;;342.42;191.02;;;;;;;20.67;93.63;99549.25;408959;24;1213;-82
2022/06/07 00:39:57;;;;;;;343.40;193.80;;;;;;;20.65;93.31;99552.03;413061;24;1330;-81
2022/06/07 00:40:08;;;;;;;346.65;199.38;;;;;;;20.66;93.08;99550.22;416814;23;1159;-81
2022/06/07 00:40:18;;;;;;;346.80;199.90;;;;;;;20.64;93.50;99544.19;411023;24;1201;-81
2022/06/07 00:40:29;;;;;;;347.17;200.93;;;;;;;20.61;93.28;99550.59;412341;24;1219;-82
2022/06/07 00:40:39;;;;;;;348.95;202.70;;;;;;;20.62;93.46;99554.09;413054;23;1111;-81
2022/06/07 00:40:50;;;;;;;352.07;204.00;;;;;;;20.62;93.26;99546.13;410275;24;1347;-81
2022/06/07 00:41:01;;;;;;;356.40;206.63;;;;;;;20.60;93.54;99554.22;410834;24;1301;-81
2022/06/07 00:41:12;;;;;;;358.42;206.38;;;;;;;20.60;93.45;99554.22;410367;24;1190;-81
2022/06/07 00:41:22;;;;;;;357.88;205.50;;;;;;;20.58;93.12;99550.84;412458;24;1352;-81
2022/06/07 00:41:32;;;;;;;354.83;203.33;;;;;;;20.58;93.36;99551.69;412902;23;1337;-81
2022/06/07 00:41:43;;;;;;;351.90;201.55;;;;;;;20.56;93.05;99544.81;410432;24;1047;-81
2022/06/07 00:41:53;;;;;;;350.60;203.13;;;;;;;20.57;93.17;99549.16;414221;23;1185;-81
2022/06/07 00:42:04;;;;;;;352.33;201.07;;;;;;;20.58;93.11;99546.38;416006;23;1249;-81
2022/06/07 00:42:15;;;;;;;353.98;201.73;;;;;;;20.61;93.20;99555.91;414040;23;1917;-81
2022/06/07 00:42:25;;;;;;;353.95;199.52;;;;;;;20.61;93.07;99557.72;414473;23;1384;-81
2022/06/07 00:42:36;;;;;;;350.55;197.63;;;;;;;20.61;93.21;99555.91;411360;24;1227;-81
2022/06/07 00:42:46;;;;;;;348.37;196.57;;;;;;;20.61;92.98;99550.59;413163;24;988;-81
2022/06/07 00:42:57;;;;;;;346.85;194.25;;;;;;;20.63;92.93;99559.28;412610;24;1298;-81
2022/06/07 00:43:07;;;;;;;351.63;199.67;;;;;;;20.62;93.18;99562.06;412314;24;1172;-81
2022/06/07 00:43:21;;;;;;;357.58;200.13;;;;;;;20.62;92.87;99552.28;410427;24;1235;-81
2022/06/07 00:43:32;;;;;;;351.80;196.57;;;;;;;20.61;92.73;99555.91;411083;24;1318;-81
2022/06/07 00:44:20;;;;;;;350.07;194.43;;;;;;;20.64;92.52;99558.31;413180;24;1411;-81
2022/06/07 00:44:35;;;;;;;342.25;194.05;;;;;;;20.62;92.77;99557.59;412200;24;860;-80
2022/06/07 00:44:46;;;;;;;341.33;197.93;;;;;;;20.61;92.96;99557.72;412316;24;771;-81
2022/06/07 00:44:57;;;;;;;341.05;196.82;;;;;;;20.59;92.99;99560.50;412756;24;1404;-81
2022/06/07 00:45:16;;;;;;;343.90;198.23;;;;;;;20.59;92.61;99563.19;411009;24;854;-81
2022/06/07 00:45:26;;;;;;;344.23;199.90;;;;;;;20.60;92.77;99559.53;411028;24;1024;-81
2022/06/07 00:45:37;;;;;;;345.17;198.80;;;;;;;20.60;92.63;99559.53;411127;24;980;-81
2022/06/07 00:45:48;;;;;;;346.13;200.35;;;;;;;20.58;92.64;99558.81;416306;23;1684;-81
2022/06/07 00:45:58;;;;;;;345.15;197.55;;;;;;;20.60;92.68;99564.88;416414;23;888;-81
2022/06/07 00:46:09;;;;;;;346.83;200.83;;;;;;;20.59;93.05;99557.84;414577;23;1191;-81
2022/06/07 00:46:21;;;;;;;348.13;198.98;;;;;;;20.60;92.81;99562.19;414819;23;1288;-80
2022/06/07 00:46:32;;;;;;;350.33;199.13;;;;;;;20.58;92.71;99558.81;414109;23;1515;-80
2022/06/07 00:46:44;;;;;;;349.67;198.03;;;;;;;20.61;92.47;99563.91;414284;23;1313;-80
2022/06/07 00:46:57;;;;;;;352.67;202.05;;;;;;;20.57;92.57;99557.13;416938;23;817;-82
2022/06/07 00:47:11;;;;;;;354.88;204.52;;;;;;;20.61;92.71;99557.72;414428;23;1415;-81
2022/06/07 00:47:24;;;;;;;349.17;199.68;;;;;;;20.58;92.40;99553.50;410445;24;1285;-81
2022/06/07 00:47:35;;;;;;;347.54;197.44;;;;;;;20.59;92.54;99557.84;408692;24;921;-80
2022/06/07 00:47:47;;;;;;;348.83;198.37;;;;;;;20.55;93.00;99557.25;411066;24;1166;-81
2022/06/07 00:47:58;;;;;;;349.88;200.02;;;;;;;20.61;92.75;99561.22;412836;23;1376;-80
2022/06/07 00:48:08;;;;;;;349.50;200.60;;;;;;;20.57;92.95;99554.47;413000;24;1225;-80
2022/06/07 00:48:19;;;;;;;350.50;201.90;;;;;;;20.58;93.10;99553.50;411089;24;1147;-80
2022/06/07 00:48:29;;;;;;;351.98;199.02;;;;;;;20.61;92.89;99555.06;410219;24;877;-80
2022/06/07 00:48:40;;;;;;;352.15;199.02;;;;;;;20.57;92.90;99559.78;416447;23;1183;-80
2022/06/07 00:48:50;;;;;;;352.90;200.33;;;;;;;20.57;92.85;99554.47;414804;23;1287;-80
2022/06/07 00:49:01;;;;;;;353.38;201.05;;;;;;;20.61;92.96;99553.25;412678;24;1297;-80
2022/06/07 00:49:12;;;;;;;354.17;201.97;;;;;;;20.60;92.70;99556.88;412429;24;1299;-80
2022/06/07 00:49:23;;;;;;;349.17;198.55;;;;;;;20.62;92.79;99551.44;410506;24;1262;-80
2022/06/07 00:49:43;;;;;;;348.38;198.30;;;;;;;20.61;92.93;99555.06;413021;24;1175;-80
2022/06/07 00:50:34;;;;;;;344.58;193.50;;;;;;;20.59;92.83;99550.72;411468;24;967;-80
2022/06/07 00:50:50;;;;;;;336.73;192.57;;;;;;;20.60;92.35;99548.91;409092;24;984;-80
2022/06/07 00:51:10;;;;;;;339.02;194.82;;;;;;;20.57;92.31;99544.69;406727;24;1008;-80
2022/06/07 00:51:20;;;;;;;342.00;196.25;;;;;;;20.59;91.94;99552.53;416393;23;857;-80
2022/06/07 00:51:31;;;;;;;344.07;198.07;;;;;;;20.57;92.11;99555.31;414674;23;1345;-80